Enon Valley, Pennsylvania
Current Conditions -  °F | °C
As of 10:55 PM on Thursday 27 Nov 2014 (Local Time) from KBTP Reporting Station
Overcast Overcast  
Wind Chill: 20°   Ceiling: 1700
Heat Index: 28°   Visibility: 3mi
Dew Point: 25°   Wind: 9mph
Humidity: 86%   Direction: 240°WSW
Pressure: 30.2"   Gusts: NA
Location:  40.85°N, 80.46°W
Report Text: KBTP 280355Z AUTO 24008KT 3SM SCT011 OVC017 M02/M04 A3020 RMK AO1
Loading
Personal Weather Stations






























Interactive Weather Map New forecast layout! Learn more

10-Day Weather Forecast

Advertisements
Track Severe Weather on mobile